Time;durP1;ratioP1;P1;durP2;ratioP2;P2;SDS_P1;SDS_P2;PMS_P1;PMS_P2;Temp;Humidity;BMP_temperature;BMP_pressure;BME280_temperature;BME280_humidity;BME280_pressure;Samples;Min_cycle;Max_cycle;Signal;HPM_P1;HPM_P2
2022/12/12 00:01:35;;;;;;;46.78;17.25;;;;;;;-3.78;94.72;95441.50;5000713;28;20050;-91
2022/12/12 00:04:03;;;;;;;38.28;15.65;;;;;;;-3.63;94.49;95446.19;5002701;28;20414;-87
2022/12/12 00:06:31;;;;;;;43.20;16.75;;;;;;;-3.82;95.13;95448.38;5009752;28;20046;-88
2022/12/12 00:08:57;;;;;;;36.65;15.55;;;;;;;-3.71;94.93;95450.09;4994174;28;20405;-90
2022/12/12 00:11:25;;;;;;;37.78;15.05;;;;;;;-3.53;94.29;95454.28;5005925;28;20406;-86
2022/12/12 00:13:53;;;;;;;39.90;15.35;;;;;;;-3.78;94.87;95450.28;5004932;28;20056;-87
2022/12/12 00:16:20;;;;;;;40.38;15.50;;;;;;;-3.69;94.96;95453.31;5005017;28;20054;-92
2022/12/12 00:18:47;;;;;;;45.28;16.95;;;;;;;-3.64;94.21;95455.22;4997211;28;20066;-89
2022/12/12 00:21:17;;;;;;;43.90;16.23;;;;;;;-3.56;93.96;95457.44;4998832;28;20491;-91
2022/12/12 00:23:44;;;;;;;45.38;16.70;;;;;;;-3.71;93.47;95458.06;4994111;28;20058;-84
2022/12/12 00:26:16;;;;;;;41.85;15.88;;;;;;;-3.58;93.55;95455.03;5001352;28;20050;-87
2022/12/12 00:28:43;;;;;;;42.43;15.03;;;;;;;-3.62;93.22;95459.22;4992967;28;20042;-83
2022/12/12 00:31:10;;;;;;;46.08;17.27;;;;;;;-3.78;93.38;95452.16;4997619;28;20049;-89
2022/12/12 00:33:36;;;;;;;51.20;16.50;;;;;;;-3.76;94.07;95458.00;4994401;28;20042;-86
2022/12/12 00:36:03;;;;;;;40.70;16.70;;;;;;;-3.89;94.28;95459.22;5004837;28;20429;-91
2022/12/12 00:38:31;;;;;;;37.47;14.57;;;;;;;-3.68;93.92;95454.91;5004536;28;20057;-89
2022/12/12 00:41:00;;;;;;;38.33;16.20;;;;;;;-3.78;93.47;95460.94;5001652;28;20053;-89
2022/12/12 00:43:27;;;;;;;45.17;15.95;;;;;;;-3.81;94.11;95455.28;4997219;28;20046;-88
2022/12/12 00:45:54;;;;;;;40.05;16.00;;;;;;;-3.84;94.03;95456.63;5004524;28;20092;-87
2022/12/12 00:48:21;;;;;;;34.78;14.88;;;;;;;-3.65;93.65;95459.75;4994718;28;20418;-87
2022/12/12 00:50:47;;;;;;;40.15;15.93;;;;;;;-3.71;93.91;95466.88;5000627;28;20055;-88
2022/12/12 00:53:14;;;;;;;42.63;16.65;;;;;;;-3.74;93.76;95455.94;5003771;28;20466;-87
2022/12/12 00:55:42;;;;;;;47.05;16.83;;;;;;;-3.91;94.19;95465.84;4998333;28;20404;-91
2022/12/12 00:58:09;;;;;;;46.65;17.55;;;;;;;-3.80;93.96;95467.56;5008124;28;20386;-93
2022/12/12 01:00:39;;;;;;;48.38;16.25;;;;;;;-3.69;93.30;95474.59;5005748;28;20039;-91
2022/12/12 01:03:05;;;;;;;45.70;16.20;;;;;;;-3.69;92.90;95461.31;5005143;28;20109;-89
2022/12/12 01:05:32;;;;;;;45.38;15.18;;;;;;;-3.66;92.42;95474.09;5015789;28;20046;-85
2022/12/12 01:07:59;;;;;;;36.17;15.52;;;;;;;-3.68;92.35;95471.69;5003495;28;20129;-87
2022/12/12 01:10:25;;;;;;;41.47;14.52;;;;;;;-3.60;92.02;95477.59;4996124;28;20058;-88
2022/12/12 01:12:53;;;;;;;44.03;16.48;;;;;;;-3.63;91.83;95473.59;4999465;28;20046;-91
2022/12/12 01:15:20;;;;;;;47.83;15.63;;;;;;;-3.85;92.00;95478.94;5000107;28;20518;-90
2022/12/12 01:17:46;;;;;;;50.83;17.30;;;;;;;-3.77;92.04;95472.38;5001459;28;20466;-88
2022/12/12 01:20:18;;;;;;;43.42;15.35;;;;;;;-3.78;92.31;95473.44;5001033;28;20050;-85
2022/12/12 01:22:44;;;;;;;45.20;16.08;;;;;;;-3.77;92.15;95472.38;5000054;28;20042;-92
2022/12/12 01:25:12;;;;;;;47.35;16.77;;;;;;;-4.00;92.55;95479.56;5009592;28;20046;-91
2022/12/12 01:27:38;;;;;;;47.45;16.33;;;;;;;-3.91;92.89;95473.81;5003602;28;20050;-92
2022/12/12 01:30:08;;;;;;;32.88;14.63;;;;;;;-3.88;92.70;95470.66;4996029;28;20050;-91
2022/12/12 01:32:35;;;;;;;49.38;15.88;;;;;;;-3.86;92.72;95469.38;4996783;28;20141;-86
2022/12/12 01:35:06;;;;;;;43.38;14.00;;;;;;;-3.77;92.24;95472.38;5015566;28;20061;-90
2022/12/12 01:37:32;;;;;;;45.55;16.35;;;;;;;-3.80;92.11;95472.88;5006617;28;20049;-91
2022/12/12 01:39:59;;;;;;;46.25;16.58;;;;;;;-3.89;92.26;95479.69;5004104;28;20050;-91
2022/12/12 01:42:26;;;;;;;42.25;15.68;;;;;;;-4.06;92.50;95475.25;4997762;28;20055;-90
2022/12/12 01:44:53;;;;;;;57.22;17.02;;;;;;;-3.97;92.90;95471.09;5007537;28;20046;-89
2022/12/12 01:47:23;;;;;;;50.90;15.65;;;;;;;-3.78;92.25;95478.75;5008414;28;20050;-92
2022/12/12 01:49:54;;;;;;;43.78;15.52;;;;;;;-3.73;91.83;95474.28;4999346;28;20140;-91
2022/12/12 01:52:26;;;;;;;43.22;16.80;;;;;;;-3.90;91.51;95473.56;5000701;28;20046;-90
2022/12/12 01:54:57;;;;;;;52.58;16.75;;;;;;;-3.94;91.84;95483.88;5004966;28;20057;-91
2022/12/12 01:57:29;;;;;;;40.55;14.77;;;;;;;-3.87;91.64;95469.59;5003962;28;20076;-91
2022/12/12 01:59:56;;;;;;;41.83;15.77;;;;;;;-3.86;91.30;95477.34;5008907;28;20060;-89
2022/12/12 02:02:25;;;;;;;43.97;16.23;;;;;;;-3.84;91.12;95480.56;5008630;28;20072;-90
2022/12/12 02:04:51;;;;;;;42.22;16.58;;;;;;;-4.05;91.36;95476.84;4997606;28;20066;-93
2022/12/12 02:07:18;;;;;;;41.72;15.95;;;;;;;-3.89;91.32;95477.84;4998033;28;20057;-92
2022/12/12 02:09:47;;;;;;;56.78;16.65;;;;;;;-4.19;91.58;95486.22;5007536;28;20050;-90
2022/12/12 02:12:14;;;;;;;64.18;17.40;;;;;;;-4.28;92.39;95482.38;5011436;28;20398;-91
2022/12/12 02:14:45;;;;;;;65.75;17.00;;;;;;;-4.08;92.32;95487.97;5000533;28;20414;-91
2022/12/12 02:17:26;;;;;;;49.40;16.40;;;;;;;-4.19;91.84;95491.53;5006676;28;20049;-91
2022/12/12 02:20:26;;;;;;;49.60;16.00;;;;;;;-4.45;93.28;95493.06;5004811;28;20050;-91
2022/12/12 02:23:18;;;;;;;44.30;16.08;;;;;;;-4.47;93.87;95495.97;5010749;28;20052;-91
2022/12/12 02:26:14;;;;;;;57.80;18.05;;;;;;;-4.35;93.76;95497.72;5011548;28;20042;-93
2022/12/12 02:29:04;;;;;;;56.60;16.08;;;;;;;-4.33;93.63;95496.44;5000047;28;20046;-89
2022/12/12 02:31:41;;;;;;;60.67;17.02;;;;;;;-4.38;94.14;95501.69;5007358;28;20066;-93
2022/12/12 02:34:13;;;;;;;46.58;15.68;;;;;;;-4.34;93.82;95501.97;5013208;28;20474;-90
2022/12/12 02:36:48;;;;;;;55.97;16.52;;;;;;;-4.44;94.04;95504.50;4997289;28;20054;-89
2022/12/12 02:39:22;;;;;;;54.75;16.58;;;;;;;-4.48;93.59;95499.69;4995351;28;20046;-92
2022/12/12 02:41:54;;;;;;;47.60;16.27;;;;;;;-4.47;93.79;95497.81;5011666;28;20046;-91
2022/12/12 02:44:27;;;;;;;49.47;16.63;;;;;;;-4.46;94.00;95499.44;5004409;28;20051;-94
2022/12/12 02:46:59;;;;;;;40.15;16.15;;;;;;;-4.25;93.33;95497.84;5007071;28;20049;-88
2022/12/12 02:49:30;;;;;;;38.75;16.00;;;;;;;-4.22;92.91;95500.84;5006881;28;20140;-90
2022/12/12 02:51:58;;;;;;;35.00;15.50;;;;;;;-4.27;92.45;95506.09;4995052;28;20070;-90
2022/12/12 02:54:25;;;;;;;38.85;15.70;;;;;;;-4.42;93.12;95505.06;5004178;28;20145;-89
2022/12/12 02:56:54;;;;;;;40.60;16.42;;;;;;;-4.30;93.69;95503.91;4998695;28;20046;-91
2022/12/12 02:59:28;;;;;;;47.50;17.23;;;;;;;-4.28;93.27;95498.31;4999108;28;20058;-92
2022/12/12 03:02:23;;;;;;;43.53;17.17;;;;;;;-4.24;92.90;95499.44;4999441;28;20049;-92
2022/12/12 03:08:04;;;;;;;41.75;16.27;;;;;;;-4.72;94.20;95495.59;5000734;28;20108;-92
2022/12/12 03:10:45;;;;;;;40.55;15.98;;;;;;;-4.50;94.10;95508.94;5004622;28;20053;-87
2022/12/12 03:13:20;;;;;;;35.60;15.68;;;;;;;-4.62;93.84;95498.41;5007026;28;20050;-91
2022/12/12 03:15:56;;;;;;;53.40;17.65;;;;;;;-4.53;94.26;95507.56;4993036;28;20402;-86
2022/12/12 03:18:31;;;;;;;38.03;14.75;;;;;;;-4.39;93.88;95502.69;5002321;28;20518;-90
2022/12/12 03:21:03;;;;;;;41.75;16.52;;;;;;;-4.52;93.91;95509.19;4993922;28;20050;-86
2022/12/12 03:23:34;;;;;;;43.45;16.48;;;;;;;-4.60;94.76;95512.22;5002515;28;20488;-88
2022/12/12 03:26:06;;;;;;;41.42;15.77;;;;;;;-4.75;94.91;95504.88;5009446;28;20050;-85
2022/12/12 03:28:37;;;;;;;43.28;15.77;;;;;;;-4.61;94.92;95509.81;5001112;28;20045;-87
2022/12/12 03:31:09;;;;;;;44.72;15.85;;;;;;;-4.39;94.67;95508.03;4995774;28;20042;-88
2022/12/12 03:33:42;;;;;;;46.85;15.65;;;;;;;-4.40;93.83;95509.06;5005297;28;20050;-87
2022/12/12 03:36:14;;;;;;;36.57;15.30;;;;;;;-4.39;94.07;95500.03;5007287;28;20047;-85
2022/12/12 03:38:45;;;;;;;44.80;15.80;;;;;;;-4.26;93.33;95513.00;4992865;28;20050;-86
2022/12/12 03:41:17;;;;;;;37.25;15.07;;;;;;;-4.27;92.94;95510.59;4999163;28;20527;-83
2022/12/12 03:43:50;;;;;;;47.38;16.60;;;;;;;-4.31;92.88;95504.16;4994001;28;20042;-85
2022/12/12 03:46:20;;;;;;;41.38;15.68;;;;;;;-4.51;93.18;95510.78;4993178;28;20046;-90
2022/12/12 03:48:53;;;;;;;44.55;16.08;;;;;;;-4.33;93.22;95516.88;4995732;28;20050;-83
2022/12/12 03:51:26;;;;;;;39.70;14.45;;;;;;;-4.23;92.69;95514.34;5004109;28;20049;-84
2022/12/12 03:53:57;;;;;;;42.55;16.48;;;;;;;-4.20;92.26;95511.22;4985122;28;20482;-86
2022/12/12 03:56:30;;;;;;;40.85;15.15;;;;;;;-4.21;91.61;95504.28;4993671;28;20105;-87
2022/12/12 03:59:03;;;;;;;37.13;15.30;;;;;;;-4.38;91.96;95508.84;4993661;28;20056;-87
2022/12/12 04:01:37;;;;;;;48.17;16.90;;;;;;;-4.43;91.97;95511.44;5001947;28;20519;-90
2022/12/12 04:04:11;;;;;;;41.80;15.23;;;;;;;-4.56;92.21;95512.56;4993759;28;20042;-90
2022/12/12 04:06:45;;;;;;;40.65;14.63;;;;;;;-4.56;92.86;95507.25;5001275;28;20632;-86
2022/12/12 04:15:25;;;;;;;41.90;14.43;;;;;;;-4.29;90.97;95520.66;4951714;29;20126;-86
2022/12/12 04:18:02;;;;;;;37.35;13.70;;;;;;;-4.47;90.76;95517.22;4951555;29;20055;-87
2022/12/12 04:23:32;;;;;;;46.95;14.68;;;;;;;-4.43;91.64;95527.38;5004827;28;20053;-84
2022/12/12 04:29:02;;;;;;;40.17;15.38;;;;;;;-4.63;91.91;95523.38;4996910;28;20056;-89
2022/12/12 04:31:31;;;;;;;39.33;15.75;;;;;;;-4.66;92.50;95523.84;4998240;28;20050;-89
2022/12/12 04:34:07;;;;;;;38.20;14.68;;;;;;;-4.56;92.09;95529.31;5005111;28;20421;-90
2022/12/12 04:36:37;;;;;;;38.67;15.77;;;;;;;-4.58;92.17;95531.41;4997407;28;20046;-86
2022/12/12 04:39:07;;;;;;;37.28;14.77;;;;;;;-4.53;92.13;95534.16;5003223;28;20048;-85
2022/12/12 04:41:36;;;;;;;42.85;15.90;;;;;;;-4.50;92.05;95533.63;4994905;28;20046;-90
2022/12/12 04:44:09;;;;;;;40.38;15.88;;;;;;;-4.72;93.02;95546.84;5002916;28;20478;-84
2022/12/12 04:46:38;;;;;;;49.00;17.25;;;;;;;-4.77;93.27;95538.00;5013286;28;20515;-88
2022/12/12 04:49:07;;;;;;;33.58;14.95;;;;;;;-4.81;93.56;95542.19;5003062;28;20047;-83
2022/12/12 04:51:42;;;;;;;55.75;17.70;;;;;;;-4.79;93.53;95530.28;4994162;28;20675;-90
2022/12/12 04:54:13;;;;;;;42.42;15.75;;;;;;;-4.93;93.93;95533.50;5011687;28;20052;-93
2022/12/12 04:56:45;;;;;;;45.33;16.65;;;;;;;-5.08;94.90;95539.34;5006626;28;20057;-93
2022/12/12 04:59:12;;;;;;;43.55;16.95;;;;;;;-5.10;95.80;95539.59;5001047;28;20053;-90
2022/12/12 05:01:48;;;;;;;45.22;17.95;;;;;;;-4.85;95.07;95541.06;5003944;28;20564;-88
2022/12/12 05:04:23;;;;;;;30.95;15.95;;;;;;;-4.92;94.85;95535.91;4996389;28;20043;-91
2022/12/12 05:06:56;;;;;;;43.20;18.60;;;;;;;-5.00;95.04;95546.94;4995322;28;20061;-85
2022/12/12 05:09:22;;;;;;;;;;;;;;;-4.99;95.59;95548.53;5003060;28;20052;-89
2022/12/12 05:11:49;;;;;;;36.67;16.02;;;;;;;-4.83;95.37;95549.59;5008146;28;19921;-85
2022/12/12 05:14:17;;;;;;;42.75;17.33;;;;;;;-4.72;94.79;95552.16;5010688;28;20049;-88
2022/12/12 05:16:47;;;;;;;46.65;17.08;;;;;;;-4.65;94.47;95541.38;4996895;28;20057;-84
2022/12/12 05:19:13;;;;;;;40.65;16.33;;;;;;;-4.57;94.06;95548.94;4995591;28;20061;-89
2022/12/12 05:21:42;;;;;;;45.30;16.85;;;;;;;-4.79;94.49;95550.72;5005582;28;20415;-86
2022/12/12 05:24:10;;;;;;;39.17;16.48;;;;;;;-4.76;94.72;95551.03;5001986;28;20402;-90
2022/12/12 05:26:37;;;;;;;41.92;17.40;;;;;;;-4.98;95.46;95558.09;5003565;28;20486;-85
2022/12/12 05:29:05;;;;;;;47.00;18.33;;;;;;;-4.97;95.56;95553.59;5001997;28;20051;-85
2022/12/12 05:31:32;;;;;;;42.95;16.83;;;;;;;-5.00;95.61;95557.56;5009566;28;20053;-92
2022/12/12 05:33:58;;;;;;;43.45;17.50;;;;;;;-5.09;96.14;95557.13;5011357;28;20047;-91
2022/12/12 05:36:25;;;;;;;40.58;16.88;;;;;;;-5.02;96.66;95555.13;4995152;28;20057;-90
2022/12/12 05:38:51;;;;;;;39.58;15.98;;;;;;;-4.85;95.87;95557.00;4995404;28;20052;-86
2022/12/12 05:41:20;;;;;;;41.47;17.08;;;;;;;-4.75;95.25;95559.81;4995027;28;20065;-90
2022/12/12 05:43:46;;;;;;;39.63;16.85;;;;;;;-4.79;95.08;95564.00;5003240;28;20047;-82
2022/12/12 05:46:13;;;;;;;39.63;17.42;;;;;;;-4.74;95.43;95564.09;5001696;28;20486;-90
2022/12/12 05:48:39;;;;;;;41.22;16.48;;;;;;;-4.73;94.92;95563.03;5013763;28;20054;-88
2022/12/12 05:51:06;;;;;;;41.70;17.23;;;;;;;-4.95;95.47;95575.44;5002122;28;20046;-89
2022/12/12 05:53:32;;;;;;;49.25;18.42;;;;;;;-4.96;95.68;95581.75;4996106;28;20396;-88
2022/12/12 05:55:59;;;;;;;43.20;18.02;;;;;;;-5.06;96.44;95577.09;5010702;28;20054;-93
2022/12/12 05:58:27;;;;;;;46.38;19.02;;;;;;;-4.99;96.13;95578.56;5003625;28;20125;-91
2022/12/12 06:00:54;;;;;;;46.60;19.17;;;;;;;-5.02;96.16;95579.00;4999481;28;20114;-88
2022/12/12 06:03:20;;;;;;;40.58;16.92;;;;;;;-4.99;96.71;95580.41;5010800;28;20052;-92
2022/12/12 06:05:47;;;;;;;46.03;18.42;;;;;;;-4.94;96.63;95579.69;4996025;28;20142;-88
2022/12/12 06:08:14;;;;;;;45.88;18.63;;;;;;;-5.04;96.61;95586.44;5001376;28;20046;-83
2022/12/12 06:10:40;;;;;;;42.72;17.00;;;;;;;-4.96;96.99;95576.44;5005418;28;20062;-90
2022/12/12 06:13:07;;;;;;;38.28;16.23;;;;;;;-4.82;96.26;95583.88;5001195;28;20052;-88
2022/12/12 06:15:38;;;;;;;45.50;17.52;;;;;;;-4.75;95.98;95589.03;4994760;28;20053;-91
2022/12/12 06:18:05;;;;;;;47.70;19.02;;;;;;;-5.11;96.26;95577.81;5000076;28;20045;-87
2022/12/12 06:20:32;;;;;;;46.50;18.98;;;;;;;-5.02;96.27;95578.22;4996611;28;20073;-91
2022/12/12 06:22:58;;;;;;;40.42;15.95;;;;;;;-4.96;96.04;95581.75;5002844;28;20046;-91
2022/12/12 06:25:25;;;;;;;43.10;17.67;;;;;;;-5.04;96.04;95581.13;4995820;28;20056;-91
2022/12/12 06:27:51;;;;;;;43.90;18.38;;;;;;;-5.00;95.74;95587.56;5007449;28;20052;-93
2022/12/12 06:30:18;;;;;;;44.38;17.23;;;;;;;-4.97;96.25;95582.81;5012462;28;20052;-93
2022/12/12 06:32:46;;;;;;;41.60;16.88;;;;;;;-4.83;96.17;95582.28;4998359;28;20133;-89
2022/12/12 06:35:12;;;;;;;48.30;18.42;;;;;;;-4.79;95.27;95579.94;5008213;28;20058;-89
2022/12/12 06:37:40;;;;;;;41.45;17.50;;;;;;;-4.93;94.92;95581.28;5003122;28;20062;-86
2022/12/12 06:40:08;;;;;;;44.20;16.67;;;;;;;-4.85;95.02;95591.53;5001626;28;20042;-93
2022/12/12 06:42:34;;;;;;;39.33;16.45;;;;;;;-4.88;94.98;95584.03;4998350;28;20049;-91
2022/12/12 06:45:01;;;;;;;46.80;17.38;;;;;;;-4.95;94.60;95588.72;5002709;28;20405;-90
2022/12/12 06:47:27;;;;;;;41.50;17.73;;;;;;;-5.03;94.79;95589.88;4996134;28;20277;-91
2022/12/12 06:49:55;;;;;;;43.75;17.48;;;;;;;-5.12;95.04;95591.31;4995941;28;20056;-93
2022/12/12 06:52:22;;;;;;;44.78;17.73;;;;;;;-5.08;95.61;95595.91;5002770;28;20054;-94
2022/12/12 06:54:49;;;;;;;53.40;18.85;;;;;;;-5.23;96.13;95598.28;5005618;28;20049;-94
2022/12/12 06:57:15;;;;;;;46.70;18.05;;;;;;;-5.23;96.05;95600.13;5008685;28;20060;-92
2022/12/12 06:59:42;;;;;;;46.17;17.73;;;;;;;-5.22;96.14;95609.69;5000561;28;20058;-94
2022/12/12 07:02:11;;;;;;;61.17;19.60;;;;;;;-5.20;96.11;95604.97;4999755;28;20058;-94
2022/12/12 07:04:37;;;;;;;53.22;18.50;;;;;;;-5.31;96.35;95610.09;4992959;28;20157;-92
2022/12/12 07:07:05;;;;;;;59.55;19.20;;;;;;;-5.23;96.01;95619.50;4989044;28;20086;-83
2022/12/12 07:09:32;;;;;;;52.40;18.00;;;;;;;-5.17;95.93;95618.56;4997184;28;20060;-79
2022/12/12 07:11:59;;;;;;;46.92;18.20;;;;;;;-5.21;95.49;95622.75;4989170;28;20470;-79
2022/12/12 07:14:25;;;;;;;55.97;17.48;;;;;;;-5.09;95.25;95614.72;4988562;28;20461;-80
2022/12/12 07:16:52;;;;;;;54.95;18.67;;;;;;;-5.27;94.77;95610.44;4992472;28;20061;-77
2022/12/12 07:19:18;;;;;;;59.00;18.75;;;;;;;-5.48;95.79;95613.69;4997137;28;20062;-80
2022/12/12 07:21:45;;;;;;;65.10;19.77;;;;;;;-5.57;96.16;95615.94;4988530;28;20482;-81
2022/12/12 07:24:14;;;;;;;51.40;18.23;;;;;;;-5.65;96.16;95617.09;4989555;28;20050;-81
2022/12/12 07:26:41;;;;;;;64.78;18.98;;;;;;;-5.55;95.86;95617.28;4989015;28;20066;-89
2022/12/12 07:29:07;;;;;;;53.60;17.30;;;;;;;-5.62;96.19;95616.63;4989420;28;20050;-83
2022/12/12 07:31:34;;;;;;;68.40;19.50;;;;;;;-5.45;95.97;95614.03;4988918;28;20053;-81
2022/12/12 07:34:01;;;;;;;51.70;16.90;;;;;;;-5.43;95.25;95619.09;4989465;28;20053;-78
2022/12/12 07:36:27;;;;;;;50.95;17.63;;;;;;;-5.46;95.46;95627.56;4988470;28;20054;-80
2022/12/12 07:38:54;;;;;;;52.33;18.02;;;;;;;-5.46;95.21;95625.69;4996340;28;20493;-80
2022/12/12 07:41:22;;;;;;;58.17;17.67;;;;;;;-5.38;94.51;95627.16;4995081;28;20053;-82
2022/12/12 07:43:51;;;;;;;46.20;15.63;;;;;;;-5.23;93.84;95639.94;4989057;28;20065;-80
2022/12/12 07:46:20;;;;;;;48.63;16.45;;;;;;;-5.31;92.99;95643.78;4988229;28;20497;-78
2022/12/12 07:48:47;;;;;;;64.40;17.98;;;;;;;-5.19;92.46;95641.88;4987410;28;20434;-77
2022/12/12 07:51:14;;;;;;;62.47;16.70;;;;;;;-5.15;92.08;95648.34;4988102;28;20056;-80
2022/12/12 07:53:41;;;;;;;62.75;16.40;;;;;;;-5.01;91.67;95649.69;4988059;28;20050;-84
2022/12/12 07:56:09;;;;;;;51.35;15.82;;;;;;;-4.92;91.34;95659.91;4988056;28;20061;-82
2022/12/12 07:58:37;;;;;;;66.60;16.55;;;;;;;-4.88;90.94;95663.69;4997860;28;20073;-86
2022/12/12 08:01:09;;;;;;;50.17;16.38;;;;;;;-4.83;90.29;95661.13;5001820;28;20043;-83
2022/12/12 08:03:35;;;;;;;60.22;15.70;;;;;;;-4.45;89.59;95665.78;4992305;28;20050;-83
2022/12/12 08:06:04;;;;;;;55.92;15.25;;;;;;;-3.88;86.22;95662.16;5001385;28;20046;-79
2022/12/12 08:08:31;;;;;;;57.92;15.52;;;;;;;-3.31;83.62;95664.53;4993687;28;20050;-80
2022/12/12 08:10:57;;;;;;;61.03;15.88;;;;;;;-2.79;82.09;95672.06;4993190;28;20050;-83
2022/12/12 08:13:26;;;;;;;41.92;13.25;;;;;;;-2.62;80.01;95670.91;4992710;28;20046;-80
2022/12/12 08:15:54;;;;;;;62.97;15.32;;;;;;;-3.48;80.15;95662.72;4992732;28;20096;-79
2022/12/12 08:18:21;;;;;;;60.60;14.32;;;;;;;-3.83;82.58;95670.22;5008101;28;20061;-80
2022/12/12 08:20:47;;;;;;;55.70;14.88;;;;;;;-3.45;82.46;95675.53;5010353;28;22025;-78
2022/12/12 08:23:14;;;;;;;66.85;14.43;;;;;;;-3.48;81.95;95684.03;4992949;28;20046;-80
2022/12/12 08:25:41;;;;;;;68.20;15.82;;;;;;;-3.67;82.58;95677.34;4994426;28;20058;-79
2022/12/12 08:28:08;;;;;;;48.67;14.20;;;;;;;-3.91;82.15;95690.06;4999060;28;20073;-81
2022/12/12 08:30:35;;;;;;;55.35;14.25;;;;;;;-3.87;83.43;95687.69;5000640;28;20508;-76
2022/12/12 08:33:03;;;;;;;49.25;14.48;;;;;;;-4.07;82.87;95696.16;4992989;28;20057;-80
2022/12/12 08:35:30;;;;;;;44.42;14.05;;;;;;;-4.16;84.98;95693.13;4993418;28;20046;-81
2022/12/12 08:37:56;;;;;;;45.47;15.43;;;;;;;-4.33;85.23;95693.13;5013146;28;20058;-80
2022/12/12 08:40:23;;;;;;;57.80;15.82;;;;;;;-4.09;85.42;95703.59;4997302;28;20057;-84
2022/12/12 08:42:50;;;;;;;43.47;14.77;;;;;;;-3.80;84.99;95707.78;4996284;28;20069;-83
2022/12/12 08:45:17;;;;;;;53.67;15.30;;;;;;;-3.60;84.39;95696.63;4998076;28;20042;-86
2022/12/12 08:47:43;;;;;;;40.47;13.90;;;;;;;-3.45;84.14;95696.03;5002715;28;20489;-81
2022/12/12 08:50:12;;;;;;;59.78;14.15;;;;;;;-3.46;83.10;95697.88;4998530;28;20051;-79
2022/12/12 08:52:38;;;;;;;60.03;13.55;;;;;;;-3.24;82.50;95705.09;4992855;28;20124;-78
2022/12/12 08:55:05;;;;;;;51.55;14.95;;;;;;;-3.45;82.07;95704.00;4993204;28;20061;-80
2022/12/12 08:57:31;;;;;;;58.95;15.15;;;;;;;-3.32;81.59;95708.19;5001538;28;20050;-82
2022/12/12 08:59:58;;;;;;;51.75;15.35;;;;;;;-3.50;81.15;95712.75;4992968;28;20057;-81
2022/12/12 09:02:25;;;;;;;63.67;14.80;;;;;;;-3.70;81.61;95718.56;4992207;28;20038;-79
2022/12/12 09:04:51;;;;;;;75.07;14.15;;;;;;;-3.68;81.86;95718.31;5000373;28;20049;-80
2022/12/12 09:07:19;;;;;;;55.47;14.30;;;;;;;-4.11;83.17;95722.44;4992702;28;20043;-80
2022/12/12 09:09:46;;;;;;;77.85;15.27;;;;;;;-3.99;83.13;95727.69;4992800;28;20050;-81
2022/12/12 09:12:12;;;;;;;69.97;15.07;;;;;;;-4.21;84.29;95728.41;4992468;28;20057;-79
2022/12/12 09:14:39;;;;;;;78.47;16.88;;;;;;;-4.61;86.82;95731.13;5000871;28;20061;-80
2022/12/12 09:17:06;;;;;;;71.20;17.92;;;;;;;-4.61;87.25;95727.69;4992771;28;20050;-83
2022/12/12 09:19:32;;;;;;;77.72;17.48;;;;;;;-4.49;87.28;95731.91;5011365;28;20046;-81
2022/12/12 09:21:59;;;;;;;59.78;16.52;;;;;;;-4.27;86.58;95739.19;4997278;28;20054;-85
2022/12/12 09:24:27;;;;;;;72.90;16.63;;;;;;;-4.38;86.61;95737.41;4996453;28;20054;-82
2022/12/12 09:26:53;;;;;;;76.80;16.63;;;;;;;-4.39;87.62;95731.25;5002625;28;20498;-81
2022/12/12 09:29:20;;;;;;;82.18;16.15;;;;;;;-4.26;87.51;95730.16;4992559;28;20577;-83
2022/12/12 09:31:47;;;;;;;70.07;16.73;;;;;;;-4.24;87.89;95730.72;5000057;28;20062;-87
2022/12/12 09:34:13;;;;;;;75.80;16.17;;;;;;;-4.32;87.56;95733.78;4992169;28;20054;-84
2022/12/12 09:36:40;;;;;;;64.93;16.65;;;;;;;-4.18;87.47;95736.94;4992182;28;20050;-84
2022/12/12 09:39:08;;;;;;;67.03;16.42;;;;;;;-3.83;87.27;95734.06;4997653;28;20090;-79
2022/12/12 09:41:36;;;;;;;97.55;18.50;;;;;;;-3.46;86.62;95735.13;4993135;28;20510;-76
2022/12/12 09:44:06;;;;;;;52.38;14.18;;;;;;;-3.19;83.28;95732.56;5004528;28;20046;-77
2022/12/12 09:46:37;;;;;;;65.93;15.80;;;;;;;-3.23;81.12;95722.69;4991353;28;20323;-86
2022/12/12 09:49:17;;;;;;;39.05;12.90;;;;;;;-3.26;80.95;95728.50;4997331;28;20137;-87
2022/12/12 09:51:47;;;;;;;51.88;14.18;;;;;;;-3.81;82.58;95737.25;4999314;28;20050;-85
2022/12/12 09:54:16;;;;;;;48.20;13.85;;;;;;;-3.77;83.56;95743.72;5003960;28;20050;-81
2022/12/12 09:56:53;;;;;;;47.97;13.20;;;;;;;-3.64;83.03;95730.09;5000663;28;20166;-77
2022/12/12 09:59:31;;;;;;;63.20;14.25;;;;;;;-3.38;81.32;95730.47;4997671;28;20085;-84
2022/12/12 10:02:05;;;;;;;42.42;11.73;;;;;;;-2.88;79.92;95741.75;4995544;28;20053;-82
2022/12/12 10:04:39;;;;;;;47.47;14.02;;;;;;;-2.76;77.33;95732.88;4998924;28;20069;-86
2022/12/12 10:07:12;;;;;;;38.15;12.05;;;;;;;-3.04;79.56;95747.16;5002296;28;20050;-84
2022/12/12 10:09:53;;;;;;;54.47;13.23;;;;;;;-3.27;79.79;95732.22;5001863;28;20157;-83
2022/12/12 10:12:22;;;;;;;50.80;12.48;;;;;;;-3.17;78.96;95737.69;5004649;28;20058;-86
2022/12/12 10:14:52;;;;;;;50.97;13.82;;;;;;;-3.36;78.75;95741.66;4997644;28;20118;-85
2022/12/12 10:17:22;;;;;;;45.42;13.00;;;;;;;-3.16;79.04;95734.75;4997522;28;20066;-84
2022/12/12 10:19:51;;;;;;;45.58;12.27;;;;;;;-2.71;78.28;95730.25;4997227;28;20053;-80
2022/12/12 10:22:28;;;;;;;37.88;11.38;;;;;;;-2.42;78.06;95723.63;5001051;28;20042;-82
2022/12/12 10:25:00;;;;;;;51.08;13.52;;;;;;;-2.11;76.80;95729.25;4987636;28;20521;-79
2022/12/12 10:27:28;;;;;;;32.28;11.98;;;;;;;-2.06;74.16;95726.63;4992519;28;20057;-83
2022/12/12 10:29:56;;;;;;;41.55;12.60;;;;;;;-2.26;75.06;95729.09;4985412;28;20422;-82
2022/12/12 10:32:37;;;;;;;47.47;11.98;;;;;;;-1.88;75.36;95731.59;4990919;28;20498;-84
2022/12/12 10:35:16;;;;;;;44.92;12.63;;;;;;;-2.17;73.55;95730.28;4998709;28;20042;-82
2022/12/12 10:37:56;;;;;;;27.95;10.75;;;;;;;-2.37;74.73;95731.69;4990570;28;20770;-83
2022/12/12 10:40:34;;;;;;;47.83;12.48;;;;;;;-2.84;75.90;95727.97;4997813;28;20065;-82
2022/12/12 10:43:10;;;;;;;41.72;12.30;;;;;;;-3.15;78.10;95730.25;4989525;28;20050;-84
2022/12/12 10:46:04;;;;;;;59.15;13.05;;;;;;;-3.09;78.62;95721.25;4990084;28;20074;-83
2022/12/12 10:48:30;;;;;;;;;;;;;;;-2.53;77.51;95727.25;4990379;28;20057;-78
2022/12/12 10:51:02;;;;;;;46.15;12.32;;;;;;;-2.29;75.27;95719.78;4990582;28;19930;-83
2022/12/12 10:53:30;;;;;;;30.63;10.68;;;;;;;-2.20;75.29;95718.22;4989913;28;20553;-82
2022/12/12 10:56:00;;;;;;;42.72;12.50;;;;;;;-1.92;74.55;95717.16;4997508;28;20418;-77
2022/12/12 10:58:36;;;;;;;36.67;11.70;;;;;;;-1.62;74.23;95721.09;4998522;28;20066;-78
2022/12/12 11:01:05;;;;;;;44.10;12.43;;;;;;;-1.66;73.64;95723.50;5002818;28;20046;-79
2022/12/12 11:03:35;;;;;;;42.78;12.10;;;;;;;-2.05;73.37;95717.56;4989399;28;20498;-78
2022/12/12 11:06:06;;;;;;;42.33;11.93;;;;;;;-1.92;73.58;95716.34;4989377;28;20686;-77
2022/12/12 11:08:35;;;;;;;47.17;13.02;;;;;;;-1.72;73.81;95713.03;4997274;28;20061;-79
2022/12/12 11:11:17;;;;;;;40.72;12.15;;;;;;;-1.79;73.12;95715.13;4989825;28;20073;-76
2022/12/12 11:13:51;;;;;;;48.45;12.25;;;;;;;-1.82;73.01;95716.44;4989700;28;20434;-77
2022/12/12 11:16:22;;;;;;;45.00;12.15;;;;;;;-1.74;73.34;95720.50;5004431;28;20836;-78
2022/12/12 11:19:04;;;;;;;30.30;10.43;;;;;;;-1.63;73.61;95714.97;4990651;28;20050;-78
2022/12/12 11:21:33;;;;;;;46.83;13.35;;;;;;;-1.81;72.89;95718.03;4989670;28;20716;-82
2022/12/12 11:24:06;;;;;;;46.75;12.95;;;;;;;-1.87;73.31;95719.06;4990501;28;20042;-86
2022/12/12 11:26:41;;;;;;;42.53;10.85;;;;;;;-2.15;73.72;95712.13;4989805;28;20666;-82
2022/12/12 11:29:26;;;;;;;31.67;11.55;;;;;;;-2.14;74.27;95713.75;4989987;28;20046;-82
2022/12/12 11:31:54;;;;;;;34.00;11.00;;;;;;;-2.51;74.49;95711.78;4981084;28;20667;-83
2022/12/12 11:34:21;;;;;;;43.97;11.20;;;;;;;-2.70;76.13;95715.88;4988830;28;20054;-82
2022/12/12 11:36:48;;;;;;;38.15;11.32;;;;;;;-2.43;75.78;95711.34;4989301;28;20042;-79
2022/12/12 11:39:21;;;;;;;32.78;11.82;;;;;;;-2.45;74.92;95718.81;4995092;28;20042;-82
2022/12/12 11:41:59;;;;;;;34.58;11.70;;;;;;;-3.03;76.98;95720.25;4989750;28;20078;-81
2022/12/12 11:44:32;;;;;;;34.97;11.45;;;;;;;-2.86;76.91;95717.56;4989061;28;20050;-77